Chadron Municipal Airport
KCDR : now visible

Airfield :











YOU CAN JOIN US ON...

 
LOGIN :

Register | Disclaimer

   EN    FR    IT 

 









Legend :    VFR   Marginal VFR   IFR   Intensive IFR   Very Intensive IFR
Visi :
Ceiling :
>= 8 km
>= 3000ft
5 to 8 km
1000 to 3000 ft
1500m to 5 km
500 to 1000 ft
800 to 1500m
200 to 500 ft
< 800m
< 200 ft
Symbols :   Thunderstorms  Fog  Heavy snow  Heavy precipitations  Wind > 20 kt






- Airport Elevation : 3297 ft


KCDR - Chadron Municipal

CURRENT METAR :
  • 221224Z AUTO 01008KT 9SM OVC003 M02/M02 A2996 RMK AO2 T10171022 $

EXPIRED METARs :
  • 221153Z AUTO 01008KT 10SM BKN006 OVC010 M02/M02 A2995 RMK AO2 SLP173 60000 I6003 T10171022 11011 21017 53002 $
  • 221102Z AUTO 01008KT 9SM OVC004 M01/M02 A2994 RMK AO2 T10111022 $
  • 221053Z AUTO 02007KT 10SM OVC005 M01/M02 A2994 RMK AO2 SLP169 T10111022 $
  • 221007Z AUTO 03007KT 10SM BKN007 OVC013 M02/M02 A2994 RMK AO2 T10171022 $
  • 220953Z AUTO 02008KT 10SM SCT007 OVC013 M02/M02 A2994 RMK AO2 SLP169 I1000 T10171022 $

TAF KCDR
Valid from the 22 at 12:00 until the 23 at 12:00 UTC


221120Z 2212/2312 04007KT 6SM BR OVC004
FM221300 03008KT 2SM BR OVC004
FM221400 03008KT 1 1/2SM BR OVC004
FM221600 01010KT P6SM OVC009
FM221800 35012G21KT P6SM OVC009
FM222300 35016G23KT P6SM OVC019
KZDV FIR / North America



MET'MAP, your aeronautical weather chart ! - Copyright ORBIFLY December 2007 - Disclaimer

ORBIFLY MET'MAP TEAM :

Programming & Development : Alexandra Zaïnal
Concept & original design : Baudouin d'Aumeries
Assistance for programming : Marc-Olivier Méhu
Technical & hardware support : Manuel Goepfert

Contact : metmap@orbifly.com




SOURCES & CREDITS :

   NOAA       Earth
Advisory